createdAt,value
2023-02-01T00:00:50.767Z,75.79
2023-02-01T00:05:57.898Z,75.53
2023-02-01T00:11:01.590Z,75.58
2023-02-01T00:16:09.561Z,74.77
2023-02-01T00:21:12.142Z,74.64
2023-02-01T00:26:32.540Z,74.45
2023-02-01T00:31:34.321Z,74.50
2023-02-01T00:36:35.973Z,74.74
2023-02-01T00:41:37.696Z,74.61
2023-02-01T00:46:39.375Z,74.74
2023-02-01T00:51:40.996Z,74.53
2023-02-01T00:56:42.649Z,74.30
2023-02-01T01:01:44.562Z,73.90
2023-02-01T01:06:46.225Z,73.72
2023-02-01T01:11:47.824Z,73.70
2023-02-01T01:16:51.474Z,73.50
2023-02-01T01:21:53.089Z,73.04
2023-02-01T01:26:54.734Z,73.10
2023-02-01T01:31:56.453Z,72.40
2023-02-01T01:36:58.079Z,72.00
2023-02-01T01:41:59.803Z,72.01
2023-02-01T01:47:03.206Z,72.08
2023-02-01T01:52:05.185Z,71.92
2023-02-01T01:57:18.715Z,71.61
2023-02-01T02:02:20.419Z,71.44
2023-02-01T02:07:27.999Z,70.82
2023-02-01T02:12:29.646Z,70.92
2023-02-01T02:17:42.296Z,70.66
2023-02-01T02:23:07.682Z,70.41
2023-02-01T02:28:27.505Z,70.46
2023-02-01T02:34:00.861Z,69.90
2023-02-01T02:39:12.684Z,69.87
2023-02-01T02:44:39.083Z,70.08
2023-02-01T02:49:42.164Z,70.11
2023-02-01T02:54:47.869Z,70.32
2023-02-01T03:00:10.204Z,70.27
2023-02-01T03:05:12.114Z,70.27
2023-02-01T03:10:35.681Z,69.97
2023-02-01T03:15:50.425Z,70.32
2023-02-01T03:20:53.683Z,70.09
2023-02-01T03:25:56.759Z,70.05
2023-02-01T03:30:58.719Z,70.31
2023-02-01T03:36:23.717Z,69.97
2023-02-01T03:41:39.005Z,70.33
2023-02-01T03:46:49.548Z,70.13
2023-02-01T03:51:51.972Z,70.00
2023-02-01T03:56:55.323Z,69.77
2023-02-01T04:01:57.338Z,69.67
2023-02-01T04:06:59.001Z,69.49
2023-02-01T04:12:00.740Z,69.99
2023-02-01T04:17:02.372Z,69.23
2023-02-01T04:22:03.944Z,69.46
2023-02-01T04:27:05.663Z,68.93
2023-02-01T04:32:07.247Z,69.13
2023-02-01T04:37:09.009Z,68.73
2023-02-01T04:42:10.625Z,68.85
2023-02-01T04:47:12.263Z,69.30
2023-02-01T04:52:13.836Z,68.68
2023-02-01T04:57:15.945Z,68.49
2023-02-01T05:02:17.638Z,68.68
2023-02-01T05:07:19.242Z,68.96
2023-02-01T05:12:39.597Z,68.17
2023-02-01T05:17:41.305Z,68.20
2023-02-01T05:22:43.425Z,67.82
2023-02-01T05:27:45.188Z,67.74
2023-02-01T05:32:46.748Z,67.27
2023-02-01T05:37:48.382Z,66.92
2023-02-01T05:42:49.938Z,67.69
2023-02-01T05:47:52.058Z,67.35
2023-02-01T05:52:53.655Z,67.12
2023-02-01T05:57:55.244Z,67.39
2023-02-01T06:02:57.035Z,67.67
2023-02-01T06:07:59.451Z,68.05
2023-02-01T06:13:01.294Z,68.09
2023-02-01T06:18:02.955Z,68.23
2023-02-01T06:23:06.568Z,68.78
2023-02-01T06:28:09.146Z,68.47
2023-02-01T06:33:10.710Z,68.27
2023-02-01T06:38:12.658Z,67.94
2023-02-01T06:43:14.215Z,68.37
2023-02-01T06:48:15.813Z,68.34
2023-02-01T06:53:17.646Z,69.32
2023-02-01T06:58:19.279Z,69.53
2023-02-01T07:03:21.167Z,69.57
2023-02-01T07:08:22.751Z,68.92
2023-02-01T07:13:24.398Z,69.56
2023-02-01T07:18:27.005Z,70.52
2023-02-01T07:23:29.406Z,71.39
2023-02-01T07:28:34.196Z,72.51
2023-02-01T07:33:36.214Z,74.19
2023-02-01T07:38:37.853Z,74.87
2023-02-01T07:43:39.525Z,74.88
2023-02-01T07:48:41.114Z,75.12
2023-02-01T07:53:43.577Z,75.94
2023-02-01T07:58:49.097Z,75.64
2023-02-01T08:03:55.066Z,74.43
2023-02-01T08:08:56.738Z,73.02
2023-02-01T08:13:59.506Z,73.49
2023-02-01T08:19:01.154Z,73.73
2023-02-01T08:24:04.522Z,73.97
2023-02-01T08:29:08.152Z,74.96
2023-02-01T08:34:10.126Z,74.67
2023-02-01T08:39:12.374Z,74.37
2023-02-01T08:44:13.916Z,73.49
2023-02-01T08:49:15.521Z,72.22
2023-02-01T08:54:17.103Z,71.59
2023-02-01T08:59:18.747Z,70.10
2023-02-01T09:04:20.421Z,69.87
2023-02-01T09:09:25.071Z,69.19
2023-02-01T09:14:26.667Z,68.46
2023-02-01T09:19:28.269Z,69.01
2023-02-01T09:24:29.929Z,69.42
2023-02-01T09:29:31.595Z,69.83
2023-02-01T09:34:33.942Z,71.28
2023-02-01T09:39:36.105Z,72.61
2023-02-01T09:44:52.431Z,73.05
2023-02-01T09:50:05.990Z,74.70
2023-02-01T09:55:16.472Z,76.57
2023-02-01T10:00:27.664Z,77.20
2023-02-01T10:05:58.270Z,78.39
2023-02-01T10:11:08.903Z,78.45
2023-02-01T10:16:20.213Z,78.71
2023-02-01T10:21:49.441Z,78.40
2023-02-01T10:27:17.096Z,79.14
2023-02-01T10:32:22.974Z,79.49
2023-02-01T10:37:32.288Z,80.16
2023-02-01T10:42:33.954Z,79.39
2023-02-01T10:47:35.658Z,81.06
2023-02-01T10:53:05.638Z,78.86
2023-02-01T10:58:21.469Z,79.00
2023-02-01T11:03:35.357Z,80.54
2023-02-01T11:08:44.952Z,77.82
2023-02-01T11:13:53.568Z,77.03
2023-02-01T11:18:56.451Z,76.64
2023-02-01T11:24:03.382Z,76.18
2023-02-01T11:29:11.680Z,76.46
2023-02-01T11:34:16.335Z,75.08
2023-02-01T11:39:23.907Z,74.72
2023-02-01T11:44:32.731Z,74.70
2023-02-01T11:49:34.273Z,73.48
2023-02-01T11:55:12.838Z,73.55
2023-02-01T12:00:20.337Z,74.99
2023-02-01T12:05:24.665Z,74.65
2023-02-01T12:10:45.339Z,74.79
2023-02-01T12:16:03.742Z,74.26
2023-02-01T12:21:15.315Z,74.26
2023-02-01T12:26:41.841Z,73.55
2023-02-01T12:32:02.042Z,73.68
2023-02-01T12:37:03.614Z,73.14
2023-02-01T12:42:05.222Z,72.95
2023-02-01T12:47:12.747Z,72.32
2023-02-01T12:52:35.655Z,72.99
2023-02-01T12:57:42.076Z,71.39
2023-02-01T13:02:53.688Z,71.75
2023-02-01T13:08:01.440Z,72.21
2023-02-01T13:13:18.355Z,72.12
2023-02-01T13:18:21.849Z,72.22
2023-02-01T13:23:32.498Z,71.66
2023-02-01T13:28:53.977Z,71.37
2023-02-01T13:33:59.807Z,71.42
2023-02-01T13:39:13.724Z,71.38
2023-02-01T13:44:43.359Z,70.31
2023-02-01T13:49:45.015Z,69.78
2023-02-01T13:54:46.567Z,69.18
2023-02-01T13:59:53.187Z,68.98
2023-02-01T14:04:54.880Z,68.58
2023-02-01T14:09:56.486Z,67.77
2023-02-01T14:15:22.853Z,68.42
2023-02-01T14:20:41.946Z,68.07
2023-02-01T14:25:44.528Z,66.64
2023-02-01T14:30:48.391Z,66.76
2023-02-01T14:36:01.816Z,65.99
2023-02-01T14:41:31.624Z,65.72
2023-02-01T14:47:04.251Z,66.12
2023-02-01T14:52:10.951Z,66.05
2023-02-01T14:57:20.178Z,66.32
2023-02-01T15:02:25.921Z,65.87
2023-02-01T15:07:28.208Z,66.41
2023-02-01T15:12:32.760Z,66.16
2023-02-01T15:17:37.038Z,66.02
2023-02-01T15:22:38.627Z,67.59
2023-02-01T15:27:41.108Z,68.95
2023-02-01T15:32:42.767Z,70.08
2023-02-01T15:37:44.334Z,70.12
2023-02-01T15:42:53.529Z,69.85
2023-02-01T15:47:57.428Z,68.96
2023-02-01T15:52:59.072Z,68.36
2023-02-01T15:58:00.768Z,68.11
2023-02-01T16:03:05.486Z,68.32
2023-02-01T16:08:18.491Z,67.11
2023-02-01T16:13:23.820Z,69.34
2023-02-01T16:18:25.387Z,72.35
2023-02-01T16:23:27.144Z,72.51
2023-02-01T16:28:28.785Z,74.56
2023-02-01T16:33:30.528Z,75.02
2023-02-01T16:38:32.404Z,75.71
2023-02-01T16:43:34.007Z,75.88
2023-02-01T16:48:36.814Z,76.81
2023-02-01T16:53:53.162Z,78.00
2023-02-01T16:58:55.446Z,77.92
2023-02-01T17:03:57.249Z,78.29
2023-02-01T17:08:59.858Z,80.34
2023-02-01T17:14:18.727Z,79.97
2023-02-01T17:19:24.384Z,80.39
2023-02-01T17:24:35.728Z,78.99
2023-02-01T17:29:37.429Z,79.63
2023-02-01T17:34:39.055Z,80.15
2023-02-01T17:39:56.059Z,80.39
2023-02-01T17:45:03.091Z,80.29
2023-02-01T17:50:04.974Z,78.59
2023-02-01T17:55:16.688Z,79.10
2023-02-01T18:00:19.259Z,78.59
2023-02-01T18:05:27.697Z,78.67
2023-02-01T18:10:29.405Z,77.87
2023-02-01T18:15:31.851Z,77.79
2023-02-01T18:20:35.657Z,78.11
2023-02-01T18:25:38.624Z,78.05
2023-02-01T18:30:40.516Z,77.54
2023-02-01T18:35:42.337Z,77.50
2023-02-01T18:40:49.193Z,77.86
2023-02-01T18:45:51.076Z,78.45
2023-02-01T18:50:57.274Z,77.63
2023-02-01T18:55:59.737Z,78.01
2023-02-01T19:01:06.490Z,78.52
2023-02-01T19:06:08.731Z,78.08
2023-02-01T19:11:10.451Z,78.26
2023-02-01T19:16:13.560Z,78.00
2023-02-01T19:21:15.497Z,77.22
2023-02-01T19:26:18.007Z,77.80
2023-02-01T19:31:19.738Z,77.69
2023-02-01T19:36:21.341Z,76.41
2023-02-01T19:41:22.927Z,76.48
2023-02-01T19:46:25.455Z,76.73
2023-02-01T19:51:27.051Z,76.93
2023-02-01T19:56:28.643Z,76.41
2023-02-01T20:01:33.380Z,76.47
2023-02-01T20:06:38.476Z,75.96
2023-02-01T20:11:40.129Z,76.28
2023-02-01T20:16:42.552Z,76.61
2023-02-01T20:21:44.448Z,76.59
2023-02-01T20:26:46.942Z,77.09
2023-02-01T20:31:48.676Z,75.94
2023-02-01T20:36:50.431Z,76.26
2023-02-01T20:41:52.059Z,78.93
2023-02-01T20:46:53.710Z,80.16
2023-02-01T20:51:57.780Z,80.63
2023-02-01T20:56:59.379Z,80.45
2023-02-01T21:02:01.476Z,80.22
2023-02-01T21:07:03.510Z,79.33
2023-02-01T21:12:05.264Z,78.81
2023-02-01T21:17:06.818Z,78.33
2023-02-01T21:22:12.232Z,77.55
2023-02-01T21:27:13.930Z,78.20
2023-02-01T21:32:15.715Z,78.28
2023-02-01T21:37:17.301Z,78.13
2023-02-01T21:42:21.789Z,77.75
2023-02-01T21:47:26.023Z,77.04
2023-02-01T21:52:28.443Z,77.09
2023-02-01T21:57:30.056Z,78.27
2023-02-01T22:02:31.687Z,78.92
2023-02-01T22:07:35.896Z,77.99
2023-02-01T22:12:37.671Z,77.54
2023-02-01T22:17:39.395Z,78.71
2023-02-01T22:22:41.401Z,78.81
2023-02-01T22:28:31.090Z,79.24
2023-02-01T22:33:04.538Z,78.98
2023-02-01T22:38:06.103Z,78.45
2023-02-01T22:43:07.732Z,78.65
2023-02-01T22:48:09.382Z,77.86
2023-02-01T22:53:11.138Z,78.03
2023-02-01T22:58:12.830Z,77.46
2023-02-01T23:03:14.480Z,77.40
2023-02-01T23:08:16.091Z,77.04
2023-02-01T23:13:17.701Z,76.91
2023-02-01T23:18:19.298Z,76.03
2023-02-01T23:23:21.003Z,75.86
2023-02-01T23:28:22.569Z,75.99
2023-02-01T23:33:25.651Z,75.93
2023-02-01T23:38:27.970Z,76.88
2023-02-01T23:43:48.212Z,76.57
2023-02-01T23:48:52.847Z,76.61
2023-02-01T23:53:55.121Z,76.93
2023-02-01T23:58:57.098Z,77.21
